sensor_id;sensor_type;location;lat;lon;timestamp;P1;durP1;ratioP1;P2;durP2;ratioP2
41446;SDS011;27185;52.040;4.490;2022-10-16T00:01:25;3.53;;;0.60;;
41446;SDS011;27185;52.040;4.490;2022-10-16T00:04:12;2.63;;;0.55;;
41446;SDS011;27185;52.040;4.490;2022-10-16T00:06:58;3.08;;;0.65;;
41446;SDS011;27185;52.040;4.490;2022-10-16T00:09:44;2.67;;;0.60;;
41446;SDS011;27185;52.040;4.490;2022-10-16T00:12:31;3.88;;;0.60;;
41446;SDS011;27185;52.040;4.490;2022-10-16T00:15:16;4.70;;;0.50;;
41446;SDS011;27185;52.040;4.490;2022-10-16T00:18:03;5.00;;;0.90;;
41446;SDS011;27185;52.040;4.490;2022-10-16T00:20:50;1.95;;;0.50;;
41446;SDS011;27185;52.040;4.490;2022-10-16T00:23:36;2.03;;;0.52;;
41446;SDS011;27185;52.040;4.490;2022-10-16T00:26:22;1.98;;;0.40;;
41446;SDS011;27185;52.040;4.490;2022-10-16T00:29:08;1.98;;;0.43;;
41446;SDS011;27185;52.040;4.490;2022-10-16T00:31:54;2.28;;;0.43;;
41446;SDS011;27185;52.040;4.490;2022-10-16T00:34:39;2.35;;;0.50;;
41446;SDS011;27185;52.040;4.490;2022-10-16T00:37:25;3.28;;;0.50;;
41446;SDS011;27185;52.040;4.490;2022-10-16T00:40:10;5.15;;;0.63;;
41446;SDS011;27185;52.040;4.490;2022-10-16T00:42:56;1.95;;;0.50;;
41446;SDS011;27185;52.040;4.490;2022-10-16T00:45:41;1.48;;;0.30;;
41446;SDS011;27185;52.040;4.490;2022-10-16T00:48:27;4.03;;;0.40;;
41446;SDS011;27185;52.040;4.490;2022-10-16T00:51:13;1.35;;;0.40;;
41446;SDS011;27185;52.040;4.490;2022-10-16T00:53:59;3.45;;;0.45;;
41446;SDS011;27185;52.040;4.490;2022-10-16T00:56:47;2.05;;;0.47;;
41446;SDS011;27185;52.040;4.490;2022-10-16T00:59:40;1.92;;;0.40;;
41446;SDS011;27185;52.040;4.490;2022-10-16T01:02:27;5.63;;;0.50;;
41446;SDS011;27185;52.040;4.490;2022-10-16T01:05:12;3.80;;;0.50;;
41446;SDS011;27185;52.040;4.490;2022-10-16T01:08:01;2.55;;;0.55;;
41446;SDS011;27185;52.040;4.490;2022-10-16T01:10:59;0.95;;;0.40;;
41446;SDS011;27185;52.040;4.490;2022-10-16T01:13:55;2.78;;;0.40;;
41446;SDS011;27185;52.040;4.490;2022-10-16T01:16:49;3.53;;;0.82;;
41446;SDS011;27185;52.040;4.490;2022-10-16T01:20:08;3.72;;;0.80;;
41446;SDS011;27185;52.040;4.490;2022-10-16T01:26:08;3.83;;;0.50;;
41446;SDS011;27185;52.040;4.490;2022-10-16T01:32:11;3.47;;;0.70;;
41446;SDS011;27185;52.040;4.490;2022-10-16T01:35:26;1.90;;;0.60;;
41446;SDS011;27185;52.040;4.490;2022-10-16T01:38:19;4.05;;;0.85;;
41446;SDS011;27185;52.040;4.490;2022-10-16T01:44:21;3.03;;;0.52;;
41446;SDS011;27185;52.040;4.490;2022-10-16T01:47:10;2.85;;;0.75;;
41446;SDS011;27185;52.040;4.490;2022-10-16T01:52:45;1.98;;;0.60;;
41446;SDS011;27185;52.040;4.490;2022-10-16T01:55:33;2.80;;;0.60;;
41446;SDS011;27185;52.040;4.490;2022-10-16T01:58:23;3.10;;;0.60;;
41446;SDS011;27185;52.040;4.490;2022-10-16T02:01:12;2.67;;;0.60;;
41446;SDS011;27185;52.040;4.490;2022-10-16T02:04:02;4.10;;;0.70;;
41446;SDS011;27185;52.040;4.490;2022-10-16T02:06:53;3.13;;;0.60;;
41446;SDS011;27185;52.040;4.490;2022-10-16T02:09:39;4.22;;;0.80;;
41446;SDS011;27185;52.040;4.490;2022-10-16T02:12:26;2.13;;;0.77;;
41446;SDS011;27185;52.040;4.490;2022-10-16T02:15:14;2.00;;;0.70;;
41446;SDS011;27185;52.040;4.490;2022-10-16T02:18:01;3.47;;;0.90;;
41446;SDS011;27185;52.040;4.490;2022-10-16T02:29:39;2.75;;;0.80;;
41446;SDS011;27185;52.040;4.490;2022-10-16T02:32:35;2.38;;;0.88;;
41446;SDS011;27185;52.040;4.490;2022-10-16T02:35:24;2.00;;;0.77;;
41446;SDS011;27185;52.040;4.490;2022-10-16T02:38:12;2.35;;;0.75;;
41446;SDS011;27185;52.040;4.490;2022-10-16T02:40:59;7.78;;;0.98;;
41446;SDS011;27185;52.040;4.490;2022-10-16T02:43:44;4.10;;;0.60;;
41446;SDS011;27185;52.040;4.490;2022-10-16T02:46:30;2.78;;;0.90;;
41446;SDS011;27185;52.040;4.490;2022-10-16T02:49:15;1.58;;;0.90;;
41446;SDS011;27185;52.040;4.490;2022-10-16T02:52:01;6.18;;;1.15;;
41446;SDS011;27185;52.040;4.490;2022-10-16T02:54:47;3.30;;;0.80;;
41446;SDS011;27185;52.040;4.490;2022-10-16T02:57:32;3.00;;;0.77;;
41446;SDS011;27185;52.040;4.490;2022-10-16T03:00:18;3.47;;;0.98;;
41446;SDS011;27185;52.040;4.490;2022-10-16T03:03:04;3.92;;;1.05;;
41446;SDS011;27185;52.040;4.490;2022-10-16T03:05:50;6.05;;;0.90;;
41446;SDS011;27185;52.040;4.490;2022-10-16T03:08:35;4.55;;;0.90;;
41446;SDS011;27185;52.040;4.490;2022-10-16T03:11:21;5.50;;;0.75;;
41446;SDS011;27185;52.040;4.490;2022-10-16T03:14:06;1.38;;;0.68;;
41446;SDS011;27185;52.040;4.490;2022-10-16T03:16:52;3.15;;;0.70;;
41446;SDS011;27185;52.040;4.490;2022-10-16T03:19:38;3.30;;;0.75;;
41446;SDS011;27185;52.040;4.490;2022-10-16T03:22:23;3.35;;;0.80;;
41446;SDS011;27185;52.040;4.490;2022-10-16T03:25:09;5.40;;;0.77;;
41446;SDS011;27185;52.040;4.490;2022-10-16T03:27:54;3.53;;;0.70;;
41446;SDS011;27185;52.040;4.490;2022-10-16T03:30:40;5.07;;;0.73;;
41446;SDS011;27185;52.040;4.490;2022-10-16T03:33:25;2.88;;;0.80;;
41446;SDS011;27185;52.040;4.490;2022-10-16T03:36:11;4.28;;;0.70;;
41446;SDS011;27185;52.040;4.490;2022-10-16T03:38:57;4.82;;;0.70;;
41446;SDS011;27185;52.040;4.490;2022-10-16T03:41:42;5.22;;;0.90;;
41446;SDS011;27185;52.040;4.490;2022-10-16T03:44:28;6.68;;;0.80;;
41446;SDS011;27185;52.040;4.490;2022-10-16T03:47:13;3.35;;;0.63;;
41446;SDS011;27185;52.040;4.490;2022-10-16T03:49:59;4.70;;;0.70;;
41446;SDS011;27185;52.040;4.490;2022-10-16T03:52:44;2.08;;;0.60;;
41446;SDS011;27185;52.040;4.490;2022-10-16T03:55:30;4.40;;;0.60;;
41446;SDS011;27185;52.040;4.490;2022-10-16T03:58:16;7.57;;;0.80;;
41446;SDS011;27185;52.040;4.490;2022-10-16T04:01:01;2.33;;;0.57;;
41446;SDS011;27185;52.040;4.490;2022-10-16T04:03:47;2.40;;;0.50;;
41446;SDS011;27185;52.040;4.490;2022-10-16T04:06:32;3.63;;;0.57;;
41446;SDS011;27185;52.040;4.490;2022-10-16T04:09:18;3.20;;;0.60;;
41446;SDS011;27185;52.040;4.490;2022-10-16T04:12:03;4.13;;;0.90;;
41446;SDS011;27185;52.040;4.490;2022-10-16T04:14:49;5.18;;;0.93;;
41446;SDS011;27185;52.040;4.490;2022-10-16T04:17:35;5.68;;;0.70;;
41446;SDS011;27185;52.040;4.490;2022-10-16T04:20:20;2.80;;;0.60;;
41446;SDS011;27185;52.040;4.490;2022-10-16T04:23:06;4.43;;;0.70;;
41446;SDS011;27185;52.040;4.490;2022-10-16T04:25:51;7.72;;;0.73;;
41446;SDS011;27185;52.040;4.490;2022-10-16T04:28:37;3.25;;;0.80;;
41446;SDS011;27185;52.040;4.490;2022-10-16T04:31:22;3.10;;;0.80;;
41446;SDS011;27185;52.040;4.490;2022-10-16T04:34:08;2.92;;;0.80;;
41446;SDS011;27185;52.040;4.490;2022-10-16T04:36:54;2.45;;;0.60;;
41446;SDS011;27185;52.040;4.490;2022-10-16T04:39:39;3.22;;;0.70;;
41446;SDS011;27185;52.040;4.490;2022-10-16T04:42:25;2.08;;;0.80;;
41446;SDS011;27185;52.040;4.490;2022-10-16T04:45:10;3.83;;;1.00;;
41446;SDS011;27185;52.040;4.490;2022-10-16T04:47:56;2.72;;;0.60;;
41446;SDS011;27185;52.040;4.490;2022-10-16T04:50:42;3.90;;;0.65;;
41446;SDS011;27185;52.040;4.490;2022-10-16T04:53:28;2.40;;;0.70;;
41446;SDS011;27185;52.040;4.490;2022-10-16T04:56:13;4.10;;;0.80;;
41446;SDS011;27185;52.040;4.490;2022-10-16T04:59:00;3.55;;;0.70;;
41446;SDS011;27185;52.040;4.490;2022-10-16T05:01:45;5.15;;;0.90;;
41446;SDS011;27185;52.040;4.490;2022-10-16T05:04:31;5.68;;;0.90;;
41446;SDS011;27185;52.040;4.490;2022-10-16T05:07:17;3.25;;;1.27;;
41446;SDS011;27185;52.040;4.490;2022-10-16T05:10:03;4.05;;;0.80;;
41446;SDS011;27185;52.040;4.490;2022-10-16T05:12:48;4.53;;;0.80;;
41446;SDS011;27185;52.040;4.490;2022-10-16T05:15:34;4.13;;;1.00;;
41446;SDS011;27185;52.040;4.490;2022-10-16T05:18:20;2.15;;;0.70;;
41446;SDS011;27185;52.040;4.490;2022-10-16T05:21:06;4.63;;;1.33;;
41446;SDS011;27185;52.040;4.490;2022-10-16T05:23:52;5.07;;;1.10;;
41446;SDS011;27185;52.040;4.490;2022-10-16T05:26:39;6.78;;;1.40;;
41446;SDS011;27185;52.040;4.490;2022-10-16T05:29:24;4.28;;;1.30;;
41446;SDS011;27185;52.040;4.490;2022-10-16T05:32:10;5.03;;;0.98;;
41446;SDS011;27185;52.040;4.490;2022-10-16T05:34:55;4.68;;;1.40;;
41446;SDS011;27185;52.040;4.490;2022-10-16T05:37:41;4.93;;;1.33;;
41446;SDS011;27185;52.040;4.490;2022-10-16T05:40:27;3.90;;;1.02;;
41446;SDS011;27185;52.040;4.490;2022-10-16T05:43:13;4.78;;;1.63;;
41446;SDS011;27185;52.040;4.490;2022-10-16T05:46:01;2.83;;;1.13;;
41446;SDS011;27185;52.040;4.490;2022-10-16T05:48:51;4.68;;;1.50;;
41446;SDS011;27185;52.040;4.490;2022-10-16T05:51:38;4.93;;;1.23;;
41446;SDS011;27185;52.040;4.490;2022-10-16T05:54:23;4.43;;;1.30;;
41446;SDS011;27185;52.040;4.490;2022-10-16T05:57:09;5.53;;;1.20;;
41446;SDS011;27185;52.040;4.490;2022-10-16T05:59:54;8.40;;;1.42;;
41446;SDS011;27185;52.040;4.490;2022-10-16T06:02:40;4.82;;;1.33;;
41446;SDS011;27185;52.040;4.490;2022-10-16T06:05:26;7.93;;;1.67;;
41446;SDS011;27185;52.040;4.490;2022-10-16T06:08:11;4.90;;;1.10;;
41446;SDS011;27185;52.040;4.490;2022-10-16T06:11:00;7.57;;;1.08;;
41446;SDS011;27185;52.040;4.490;2022-10-16T06:13:51;7.13;;;1.55;;
41446;SDS011;27185;52.040;4.490;2022-10-16T06:16:38;8.70;;;1.17;;
41446;SDS011;27185;52.040;4.490;2022-10-16T06:19:24;7.40;;;1.38;;
41446;SDS011;27185;52.040;4.490;2022-10-16T06:22:09;2.47;;;0.90;;
41446;SDS011;27185;52.040;4.490;2022-10-16T06:24:55;6.25;;;1.30;;
41446;SDS011;27185;52.040;4.490;2022-10-16T06:27:41;4.97;;;1.00;;
41446;SDS011;27185;52.040;4.490;2022-10-16T06:30:26;4.93;;;1.05;;
41446;SDS011;27185;52.040;4.490;2022-10-16T06:33:12;4.15;;;0.90;;
41446;SDS011;27185;52.040;4.490;2022-10-16T06:36:11;8.38;;;0.80;;
41446;SDS011;27185;52.040;4.490;2022-10-16T06:38:59;4.57;;;0.68;;
41446;SDS011;27185;52.040;4.490;2022-10-16T06:41:44;6.18;;;1.63;;
41446;SDS011;27185;52.040;4.490;2022-10-16T06:44:30;6.57;;;1.00;;
41446;SDS011;27185;52.040;4.490;2022-10-16T06:47:15;3.10;;;0.70;;
41446;SDS011;27185;52.040;4.490;2022-10-16T06:50:01;5.43;;;0.85;;
41446;SDS011;27185;52.040;4.490;2022-10-16T06:52:48;7.90;;;0.97;;
41446;SDS011;27185;52.040;4.490;2022-10-16T06:55:34;5.75;;;1.13;;
41446;SDS011;27185;52.040;4.490;2022-10-16T06:58:19;2.38;;;0.70;;
41446;SDS011;27185;52.040;4.490;2022-10-16T07:01:05;7.20;;;1.40;;
41446;SDS011;27185;52.040;4.490;2022-10-16T07:03:52;6.80;;;0.93;;
41446;SDS011;27185;52.040;4.490;2022-10-16T07:06:38;5.68;;;0.80;;
41446;SDS011;27185;52.040;4.490;2022-10-16T07:09:23;4.25;;;0.90;;
41446;SDS011;27185;52.040;4.490;2022-10-16T07:12:09;4.80;;;1.15;;
41446;SDS011;27185;52.040;4.490;2022-10-16T07:14:55;8.15;;;1.27;;
41446;SDS011;27185;52.040;4.490;2022-10-16T07:17:41;4.40;;;1.58;;
41446;SDS011;27185;52.040;4.490;2022-10-16T07:20:26;7.97;;;1.50;;
41446;SDS011;27185;52.040;4.490;2022-10-16T07:23:12;6.47;;;1.40;;
41446;SDS011;27185;52.040;4.490;2022-10-16T07:25:57;7.32;;;1.42;;
41446;SDS011;27185;52.040;4.490;2022-10-16T07:28:43;4.22;;;1.05;;
41446;SDS011;27185;52.040;4.490;2022-10-16T07:31:29;7.50;;;1.48;;
41446;SDS011;27185;52.040;4.490;2022-10-16T07:34:15;4.45;;;1.10;;
41446;SDS011;27185;52.040;4.490;2022-10-16T07:37:02;7.57;;;1.23;;
41446;SDS011;27185;52.040;4.490;2022-10-16T07:39:47;11.05;;;1.25;;
41446;SDS011;27185;52.040;4.490;2022-10-16T07:42:33;8.30;;;1.60;;
41446;SDS011;27185;52.040;4.490;2022-10-16T07:45:19;6.68;;;1.15;;
41446;SDS011;27185;52.040;4.490;2022-10-16T07:48:05;8.80;;;1.20;;
41446;SDS011;27185;52.040;4.490;2022-10-16T07:50:50;6.30;;;1.35;;
41446;SDS011;27185;52.040;4.490;2022-10-16T07:53:36;8.02;;;1.70;;
41446;SDS011;27185;52.040;4.490;2022-10-16T07:56:21;5.78;;;1.02;;
41446;SDS011;27185;52.040;4.490;2022-10-16T07:59:07;7.80;;;1.38;;
41446;SDS011;27185;52.040;4.490;2022-10-16T08:01:53;7.63;;;1.38;;
41446;SDS011;27185;52.040;4.490;2022-10-16T08:04:38;9.68;;;1.05;;
41446;SDS011;27185;52.040;4.490;2022-10-16T08:07:24;7.65;;;1.30;;
41446;SDS011;27185;52.040;4.490;2022-10-16T08:10:14;6.55;;;1.50;;
41446;SDS011;27185;52.040;4.490;2022-10-16T08:13:02;6.85;;;1.35;;
41446;SDS011;27185;52.040;4.490;2022-10-16T08:15:47;9.68;;;1.40;;
41446;SDS011;27185;52.040;4.490;2022-10-16T08:18:34;5.60;;;0.95;;
41446;SDS011;27185;52.040;4.490;2022-10-16T08:21:24;6.40;;;1.23;;
41446;SDS011;27185;52.040;4.490;2022-10-16T08:24:09;4.13;;;1.27;;
41446;SDS011;27185;52.040;4.490;2022-10-16T08:26:55;8.77;;;1.00;;
41446;SDS011;27185;52.040;4.490;2022-10-16T08:29:41;12.00;;;1.60;;
41446;SDS011;27185;52.040;4.490;2022-10-16T08:32:26;7.75;;;1.40;;
41446;SDS011;27185;52.040;4.490;2022-10-16T08:35:12;10.40;;;1.70;;
41446;SDS011;27185;52.040;4.490;2022-10-16T08:37:59;7.65;;;1.58;;
41446;SDS011;27185;52.040;4.490;2022-10-16T08:40:44;14.20;;;1.42;;
41446;SDS011;27185;52.040;4.490;2022-10-16T08:46:31;13.10;;;1.55;;
41446;SDS011;27185;52.040;4.490;2022-10-16T08:49:41;8.90;;;1.38;;
41446;SDS011;27185;52.040;4.490;2022-10-16T08:52:34;9.18;;;1.45;;
41446;SDS011;27185;52.040;4.490;2022-10-16T08:58:29;9.23;;;1.00;;
41446;SDS011;27185;52.040;4.490;2022-10-16T09:01:16;8.23;;;1.40;;
41446;SDS011;27185;52.040;4.490;2022-10-16T09:07:06;16.52;;;2.13;;
41446;SDS011;27185;52.040;4.490;2022-10-16T09:13:22;7.93;;;1.67;;
41446;SDS011;27185;52.040;4.490;2022-10-16T09:22:14;11.80;;;1.35;;
41446;SDS011;27185;52.040;4.490;2022-10-16T09:25:05;17.27;;;2.42;;
41446;SDS011;27185;52.040;4.490;2022-10-16T09:27:57;11.55;;;1.88;;
41446;SDS011;27185;52.040;4.490;2022-10-16T09:30:43;11.82;;;1.30;;
41446;SDS011;27185;52.040;4.490;2022-10-16T09:33:32;9.32;;;1.23;;
41446;SDS011;27185;52.040;4.490;2022-10-16T09:36:21;12.20;;;1.88;;
41446;SDS011;27185;52.040;4.490;2022-10-16T09:39:10;13.00;;;1.70;;
41446;SDS011;27185;52.040;4.490;2022-10-16T09:41:57;13.38;;;1.77;;
41446;SDS011;27185;52.040;4.490;2022-10-16T09:44:42;8.68;;;1.33;;
41446;SDS011;27185;52.040;4.490;2022-10-16T09:47:35;10.85;;;1.30;;
41446;SDS011;27185;52.040;4.490;2022-10-16T09:50:29;8.35;;;1.20;;
41446;SDS011;27185;52.040;4.490;2022-10-16T09:53:14;6.88;;;1.27;;
41446;SDS011;27185;52.040;4.490;2022-10-16T09:56:02;21.85;;;2.08;;
41446;SDS011;27185;52.040;4.490;2022-10-16T09:58:51;9.70;;;1.52;;
41446;SDS011;27185;52.040;4.490;2022-10-16T10:01:39;11.80;;;1.50;;
41446;SDS011;27185;52.040;4.490;2022-10-16T10:07:26;13.50;;;1.77;;
41446;SDS011;27185;52.040;4.490;2022-10-16T10:10:24;15.15;;;1.90;;
41446;SDS011;27185;52.040;4.490;2022-10-16T10:13:19;9.55;;;1.35;;
41446;SDS011;27185;52.040;4.490;2022-10-16T10:16:06;8.48;;;1.45;;
41446;SDS011;27185;52.040;4.490;2022-10-16T10:18:59;9.77;;;1.88;;
41446;SDS011;27185;52.040;4.490;2022-10-16T10:21:45;10.02;;;1.20;;
41446;SDS011;27185;52.040;4.490;2022-10-16T10:24:30;10.50;;;1.17;;
41446;SDS011;27185;52.040;4.490;2022-10-16T10:27:16;9.90;;;1.13;;
41446;SDS011;27185;52.040;4.490;2022-10-16T10:33:25;10.30;;;1.10;;
41446;SDS011;27185;52.040;4.490;2022-10-16T10:36:25;9.55;;;1.30;;
41446;SDS011;27185;52.040;4.490;2022-10-16T10:39:25;7.90;;;1.00;;
41446;SDS011;27185;52.040;4.490;2022-10-16T10:42:31;10.93;;;1.25;;
41446;SDS011;27185;52.040;4.490;2022-10-16T10:45:44;7.97;;;1.35;;
41446;SDS011;27185;52.040;4.490;2022-10-16T10:51:40;10.82;;;1.92;;
41446;SDS011;27185;52.040;4.490;2022-10-16T11:07:35;8.60;;;1.00;;
41446;SDS011;27185;52.040;4.490;2022-10-16T11:10:26;9.38;;;1.23;;
41446;SDS011;27185;52.040;4.490;2022-10-16T11:13:17;8.20;;;1.00;;
41446;SDS011;27185;52.040;4.490;2022-10-16T11:22:05;13.10;;;1.05;;
41446;SDS011;27185;52.040;4.490;2022-10-16T11:28:16;11.25;;;1.35;;
41446;SDS011;27185;52.040;4.490;2022-10-16T11:31:16;14.75;;;1.17;;
41446;SDS011;27185;52.040;4.490;2022-10-16T11:34:16;12.60;;;0.90;;
41446;SDS011;27185;52.040;4.490;2022-10-16T11:37:27;9.27;;;1.33;;
41446;SDS011;27185;52.040;4.490;2022-10-16T11:40:33;8.27;;;1.58;;
41446;SDS011;27185;52.040;4.490;2022-10-16T11:43:28;10.85;;;1.30;;
41446;SDS011;27185;52.040;4.490;2022-10-16T11:46:25;9.57;;;1.25;;
41446;SDS011;27185;52.040;4.490;2022-10-16T11:49:13;9.45;;;1.20;;
41446;SDS011;27185;52.040;4.490;2022-10-16T11:52:20;12.25;;;1.48;;
41446;SDS011;27185;52.040;4.490;2022-10-16T11:55:14;10.73;;;1.65;;
41446;SDS011;27185;52.040;4.490;2022-10-16T12:01:30;16.10;;;1.40;;
41446;SDS011;27185;52.040;4.490;2022-10-16T12:07:24;7.60;;;1.00;;
41446;SDS011;27185;52.040;4.490;2022-10-16T12:10:24;12.35;;;3.55;;
41446;SDS011;27185;52.040;4.490;2022-10-16T12:16:24;6.82;;;1.60;;
41446;SDS011;27185;52.040;4.490;2022-10-16T12:19:14;8.93;;;2.03;;
41446;SDS011;27185;52.040;4.490;2022-10-16T12:22:01;13.02;;;1.80;;
41446;SDS011;27185;52.040;4.490;2022-10-16T12:24:51;9.05;;;1.65;;
41446;SDS011;27185;52.040;4.490;2022-10-16T12:27:37;8.18;;;1.10;;
41446;SDS011;27185;52.040;4.490;2022-10-16T12:30:23;11.00;;;1.00;;
41446;SDS011;27185;52.040;4.490;2022-10-16T12:33:22;9.05;;;1.05;;
41446;SDS011;27185;52.040;4.490;2022-10-16T12:36:11;12.30;;;1.63;;
41446;SDS011;27185;52.040;4.490;2022-10-16T12:39:01;8.23;;;1.10;;
41446;SDS011;27185;52.040;4.490;2022-10-16T12:41:47;9.05;;;1.20;;
41446;SDS011;27185;52.040;4.490;2022-10-16T12:44:34;9.18;;;1.45;;
41446;SDS011;27185;52.040;4.490;2022-10-16T12:47:35;8.20;;;1.38;;
41446;SDS011;27185;52.040;4.490;2022-10-16T12:50:28;9.38;;;1.40;;
41446;SDS011;27185;52.040;4.490;2022-10-16T12:53:23;9.77;;;1.60;;
41446;SDS011;27185;52.040;4.490;2022-10-16T12:56:24;11.00;;;1.27;;
41446;SDS011;27185;52.040;4.490;2022-10-16T12:59:22;11.50;;;1.05;;
41446;SDS011;27185;52.040;4.490;2022-10-16T13:05:32;7.07;;;1.00;;
41446;SDS011;27185;52.040;4.490;2022-10-16T13:09:00;8.20;;;1.25;;
41446;SDS011;27185;52.040;4.490;2022-10-16T13:12:13;12.35;;;1.15;;
41446;SDS011;27185;52.040;4.490;2022-10-16T13:15:07;7.10;;;1.25;;
41446;SDS011;27185;52.040;4.490;2022-10-16T13:18:03;11.15;;;1.27;;
41446;SDS011;27185;52.040;4.490;2022-10-16T13:27:39;9.27;;;1.40;;
41446;SDS011;27185;52.040;4.490;2022-10-16T13:30:43;10.52;;;1.58;;
41446;SDS011;27185;52.040;4.490;2022-10-16T13:33:37;14.23;;;1.65;;
41446;SDS011;27185;52.040;4.490;2022-10-16T13:36:28;8.07;;;1.30;;
41446;SDS011;27185;52.040;4.490;2022-10-16T13:39:23;9.32;;;1.00;;
41446;SDS011;27185;52.040;4.490;2022-10-16T13:42:11;10.50;;;1.23;;
41446;SDS011;27185;52.040;4.490;2022-10-16T13:45:03;6.90;;;1.05;;
41446;SDS011;27185;52.040;4.490;2022-10-16T13:47:49;11.93;;;1.75;;
41446;SDS011;27185;52.040;4.490;2022-10-16T13:50:35;7.03;;;0.82;;
41446;SDS011;27185;52.040;4.490;2022-10-16T13:53:20;8.05;;;1.00;;
41446;SDS011;27185;52.040;4.490;2022-10-16T13:56:09;7.82;;;1.05;;
41446;SDS011;27185;52.040;4.490;2022-10-16T13:59:03;11.65;;;1.45;;
41446;SDS011;27185;52.040;4.490;2022-10-16T14:04:38;6.00;;;0.73;;
41446;SDS011;27185;52.040;4.490;2022-10-16T14:07:25;8.65;;;1.30;;
41446;SDS011;27185;52.040;4.490;2022-10-16T14:10:19;10.77;;;1.23;;
41446;SDS011;27185;52.040;4.490;2022-10-16T14:13:19;7.80;;;1.35;;
41446;SDS011;27185;52.040;4.490;2022-10-16T14:16:17;5.47;;;1.10;;
41446;SDS011;27185;52.040;4.490;2022-10-16T14:19:18;9.45;;;1.15;;
41446;SDS011;27185;52.040;4.490;2022-10-16T14:22:57;7.40;;;0.85;;
41446;SDS011;27185;52.040;4.490;2022-10-16T14:31:16;7.45;;;1.02;;
41446;SDS011;27185;52.040;4.490;2022-10-16T14:37:23;7.45;;;1.05;;
41446;SDS011;27185;52.040;4.490;2022-10-16T14:40:13;11.25;;;1.42;;
41446;SDS011;27185;52.040;4.490;2022-10-16T14:43:00;6.68;;;1.00;;
41446;SDS011;27185;52.040;4.490;2022-10-16T14:45:51;9.52;;;1.77;;
41446;SDS011;27185;52.040;4.490;2022-10-16T14:48:40;6.45;;;1.00;;
41446;SDS011;27185;52.040;4.490;2022-10-16T14:51:27;7.18;;;1.08;;
41446;SDS011;27185;52.040;4.490;2022-10-16T14:54:13;7.75;;;1.00;;
41446;SDS011;27185;52.040;4.490;2022-10-16T14:57:03;11.93;;;1.48;;
41446;SDS011;27185;52.040;4.490;2022-10-16T14:59:50;6.25;;;1.08;;
41446;SDS011;27185;52.040;4.490;2022-10-16T15:02:38;7.95;;;0.80;;
41446;SDS011;27185;52.040;4.490;2022-10-16T15:05:25;9.93;;;1.20;;
41446;SDS011;27185;52.040;4.490;2022-10-16T15:08:12;8.48;;;1.30;;
41446;SDS011;27185;52.040;4.490;2022-10-16T15:10:58;8.43;;;1.00;;
41446;SDS011;27185;52.040;4.490;2022-10-16T15:13:43;8.55;;;1.08;;
41446;SDS011;27185;52.040;4.490;2022-10-16T15:16:30;13.75;;;1.52;;
41446;SDS011;27185;52.040;4.490;2022-10-16T15:19:16;8.10;;;1.08;;
41446;SDS011;27185;52.040;4.490;2022-10-16T15:22:01;8.93;;;1.50;;
41446;SDS011;27185;52.040;4.490;2022-10-16T15:24:47;12.25;;;1.48;;
41446;SDS011;27185;52.040;4.490;2022-10-16T15:27:33;7.05;;;1.27;;
41446;SDS011;27185;52.040;4.490;2022-10-16T15:30:24;8.18;;;1.13;;
41446;SDS011;27185;52.040;4.490;2022-10-16T15:33:12;6.80;;;1.00;;
41446;SDS011;27185;52.040;4.490;2022-10-16T15:36:00;7.45;;;1.00;;
41446;SDS011;27185;52.040;4.490;2022-10-16T15:38:46;6.43;;;1.10;;
41446;SDS011;27185;52.040;4.490;2022-10-16T15:41:32;7.85;;;1.10;;
41446;SDS011;27185;52.040;4.490;2022-10-16T15:44:17;9.70;;;1.08;;
41446;SDS011;27185;52.040;4.490;2022-10-16T15:47:03;5.05;;;1.20;;
41446;SDS011;27185;52.040;4.490;2022-10-16T15:49:48;11.13;;;1.30;;
41446;SDS011;27185;52.040;4.490;2022-10-16T15:52:34;10.32;;;1.27;;
41446;SDS011;27185;52.040;4.490;2022-10-16T15:55:20;21.10;;;1.42;;
41446;SDS011;27185;52.040;4.490;2022-10-16T15:58:05;7.32;;;1.20;;
41446;SDS011;27185;52.040;4.490;2022-10-16T16:00:57;8.98;;;1.13;;
41446;SDS011;27185;52.040;4.490;2022-10-16T16:03:45;7.28;;;1.25;;
41446;SDS011;27185;52.040;4.490;2022-10-16T16:06:31;13.30;;;1.30;;
41446;SDS011;27185;52.040;4.490;2022-10-16T16:09:17;7.45;;;1.13;;
41446;SDS011;27185;52.040;4.490;2022-10-16T16:12:02;6.95;;;1.00;;
41446;SDS011;27185;52.040;4.490;2022-10-16T16:14:48;8.20;;;1.10;;
41446;SDS011;27185;52.040;4.490;2022-10-16T16:17:34;12.45;;;1.60;;
41446;SDS011;27185;52.040;4.490;2022-10-16T16:20:21;9.63;;;1.50;;
41446;SDS011;27185;52.040;4.490;2022-10-16T16:23:07;9.07;;;1.25;;
41446;SDS011;27185;52.040;4.490;2022-10-16T16:26:03;11.65;;;1.52;;
41446;SDS011;27185;52.040;4.490;2022-10-16T16:28:50;3.58;;;1.00;;
41446;SDS011;27185;52.040;4.490;2022-10-16T16:31:35;9.13;;;1.23;;
41446;SDS011;27185;52.040;4.490;2022-10-16T16:34:21;9.02;;;1.75;;
41446;SDS011;27185;52.040;4.490;2022-10-16T16:37:07;5.40;;;1.35;;
41446;SDS011;27185;52.040;4.490;2022-10-16T16:39:53;8.27;;;2.20;;
41446;SDS011;27185;52.040;4.490;2022-10-16T16:42:40;7.72;;;1.48;;
41446;SDS011;27185;52.040;4.490;2022-10-16T16:45:26;6.72;;;1.33;;
41446;SDS011;27185;52.040;4.490;2022-10-16T16:48:11;6.93;;;1.45;;
41446;SDS011;27185;52.040;4.490;2022-10-16T16:51:01;4.43;;;1.17;;
41446;SDS011;27185;52.040;4.490;2022-10-16T16:56:40;6.57;;;1.42;;
41446;SDS011;27185;52.040;4.490;2022-10-16T16:59:28;7.53;;;1.33;;
41446;SDS011;27185;52.040;4.490;2022-10-16T17:02:15;6.97;;;1.20;;
41446;SDS011;27185;52.040;4.490;2022-10-16T17:05:00;7.18;;;1.75;;
41446;SDS011;27185;52.040;4.490;2022-10-16T17:07:46;9.32;;;1.67;;
41446;SDS011;27185;52.040;4.490;2022-10-16T17:10:31;14.20;;;1.95;;
41446;SDS011;27185;52.040;4.490;2022-10-16T17:13:17;6.78;;;1.67;;
41446;SDS011;27185;52.040;4.490;2022-10-16T17:16:04;9.40;;;1.65;;
41446;SDS011;27185;52.040;4.490;2022-10-16T17:18:50;10.20;;;1.70;;
41446;SDS011;27185;52.040;4.490;2022-10-16T17:21:37;9.43;;;1.70;;
41446;SDS011;27185;52.040;4.490;2022-10-16T17:24:23;6.55;;;1.67;;
41446;SDS011;27185;52.040;4.490;2022-10-16T17:27:09;9.63;;;2.10;;
41446;SDS011;27185;52.040;4.490;2022-10-16T17:29:56;10.70;;;2.38;;
41446;SDS011;27185;52.040;4.490;2022-10-16T17:32:42;7.93;;;2.67;;
41446;SDS011;27185;52.040;4.490;2022-10-16T17:35:27;11.13;;;2.38;;
41446;SDS011;27185;52.040;4.490;2022-10-16T17:38:13;7.38;;;2.05;;
41446;SDS011;27185;52.040;4.490;2022-10-16T17:41:09;10.02;;;1.88;;
41446;SDS011;27185;52.040;4.490;2022-10-16T17:44:03;10.50;;;2.30;;
41446;SDS011;27185;52.040;4.490;2022-10-16T17:46:50;6.70;;;1.57;;
41446;SDS011;27185;52.040;4.490;2022-10-16T17:49:37;12.00;;;1.85;;
41446;SDS011;27185;52.040;4.490;2022-10-16T17:52:23;6.88;;;2.10;;
41446;SDS011;27185;52.040;4.490;2022-10-16T17:55:08;10.15;;;1.85;;
41446;SDS011;27185;52.040;4.490;2022-10-16T17:57:54;8.98;;;1.85;;
41446;SDS011;27185;52.040;4.490;2022-10-16T18:00:40;10.32;;;2.47;;
41446;SDS011;27185;52.040;4.490;2022-10-16T18:03:25;12.35;;;2.00;;
41446;SDS011;27185;52.040;4.490;2022-10-16T18:06:12;8.35;;;1.98;;
41446;SDS011;27185;52.040;4.490;2022-10-16T18:08:57;7.18;;;2.30;;
41446;SDS011;27185;52.040;4.490;2022-10-16T18:11:44;11.25;;;2.63;;
41446;SDS011;27185;52.040;4.490;2022-10-16T18:14:31;8.90;;;2.30;;
41446;SDS011;27185;52.040;4.490;2022-10-16T18:17:16;7.95;;;2.33;;
41446;SDS011;27185;52.040;4.490;2022-10-16T18:20:04;10.60;;;2.58;;
41446;SDS011;27185;52.040;4.490;2022-10-16T18:22:51;11.20;;;2.72;;
41446;SDS011;27185;52.040;4.490;2022-10-16T18:25:36;8.18;;;2.42;;
41446;SDS011;27185;52.040;4.490;2022-10-16T18:28:22;13.13;;;2.30;;
41446;SDS011;27185;52.040;4.490;2022-10-16T18:31:10;9.98;;;2.55;;
41446;SDS011;27185;52.040;4.490;2022-10-16T18:33:57;11.07;;;2.25;;
41446;SDS011;27185;52.040;4.490;2022-10-16T18:36:43;7.18;;;1.98;;
41446;SDS011;27185;52.040;4.490;2022-10-16T18:39:28;15.73;;;3.28;;